createdAt,value
2018-08-31T00:00:53.668Z,1012.32
2018-08-31T00:01:53.664Z,1012.34
2018-08-31T00:02:53.661Z,1012.33
2018-08-31T00:03:53.660Z,1012.32
2018-08-31T00:04:53.658Z,1012.31
2018-08-31T00:05:53.654Z,1012.27
2018-08-31T00:06:53.653Z,1012.26
2018-08-31T00:07:53.651Z,1012.27
2018-08-31T00:08:53.657Z,1012.28
2018-08-31T00:09:53.644Z,1012.25
2018-08-31T00:10:53.643Z,1012.27
2018-08-31T00:11:53.641Z,1012.27
2018-08-31T00:12:53.638Z,1012.20
2018-08-31T00:13:53.634Z,1012.21
2018-08-31T00:14:53.633Z,1012.21
2018-08-31T00:15:53.631Z,1012.20
2018-08-31T00:16:53.628Z,1012.20
2018-08-31T00:17:53.625Z,1012.16
2018-08-31T00:18:53.623Z,1012.18
2018-08-31T00:19:53.621Z,1012.20
2018-08-31T00:20:53.617Z,1012.19
2018-08-31T00:21:53.615Z,1012.18
2018-08-31T00:22:53.616Z,1012.22
2018-08-31T00:23:53.610Z,1012.22
2018-08-31T00:24:53.608Z,1012.25
2018-08-31T00:25:53.604Z,1012.24
2018-08-31T00:26:53.602Z,1012.22
2018-08-31T00:27:53.600Z,1012.23
2018-08-31T00:28:53.599Z,1012.21
2018-08-31T00:29:53.594Z,1012.20
2018-08-31T00:30:53.590Z,1012.22
2018-08-31T00:31:53.589Z,1012.19
2018-08-31T00:32:53.588Z,1012.19
2018-08-31T00:33:53.583Z,1012.16
2018-08-31T00:34:53.581Z,1012.18
2018-08-31T00:35:53.577Z,1012.14
2018-08-31T00:36:53.577Z,1012.17
2018-08-31T00:37:53.572Z,1012.13
2018-08-31T00:38:53.570Z,1012.15
2018-08-31T00:39:53.571Z,1012.13
2018-08-31T00:40:53.566Z,1012.14
2018-08-31T00:41:53.563Z,1012.10
2018-08-31T00:42:53.561Z,1012.13
2018-08-31T00:43:53.560Z,1012.12
2018-08-31T00:44:53.556Z,1012.13
2018-08-31T00:45:53.552Z,1012.10
2018-08-31T00:46:53.551Z,1012.12
2018-08-31T00:47:53.548Z,1012.10
2018-08-31T00:48:53.545Z,1012.10
2018-08-31T00:49:53.542Z,1012.10
2018-08-31T00:50:53.538Z,1012.10
2018-08-31T00:51:53.538Z,1012.10
2018-08-31T00:52:53.535Z,1012.07
2018-08-31T00:53:53.530Z,1012.10
2018-08-31T00:54:53.528Z,1012.11
2018-08-31T00:55:53.525Z,1012.08
2018-08-31T00:56:53.522Z,1012.08
2018-08-31T00:57:53.542Z,1012.10
2018-08-31T00:58:53.517Z,1012.14
2018-08-31T00:59:53.515Z,1012.12
2018-08-31T01:00:53.517Z,1012.12
2018-08-31T01:01:53.510Z,1012.12
2018-08-31T01:02:53.507Z,1012.16
2018-08-31T01:03:53.503Z,1012.14
2018-08-31T01:04:53.502Z,1012.12
2018-08-31T01:05:53.499Z,1012.12
2018-08-31T01:06:53.495Z,1012.14
2018-08-31T01:07:53.494Z,1012.11
2018-08-31T01:08:53.490Z,1012.11
2018-08-31T01:09:53.487Z,1012.12
2018-08-31T01:10:53.486Z,1012.05
2018-08-31T01:11:53.483Z,1012.10
2018-08-31T01:12:53.479Z,1012.10
2018-08-31T01:13:53.476Z,1012.15
2018-08-31T01:14:53.474Z,1012.08
2018-08-31T01:15:53.470Z,1012.13
2018-08-31T01:16:53.468Z,1012.09
2018-08-31T01:17:53.465Z,1012.07
2018-08-31T01:18:53.463Z,1012.11
2018-08-31T01:19:53.459Z,1012.12
2018-08-31T01:20:53.459Z,1012.12
2018-08-31T01:21:53.453Z,1012.15
2018-08-31T01:22:53.452Z,1012.10
2018-08-31T01:23:53.449Z,1012.12
2018-08-31T01:24:53.445Z,1012.10
2018-08-31T01:25:53.441Z,1012.12
2018-08-31T01:26:53.440Z,1012.11
2018-08-31T01:27:53.438Z,1012.11
2018-08-31T01:28:53.435Z,1012.08
2018-08-31T01:29:53.431Z,1012.07
2018-08-31T01:30:53.428Z,1012.10
2018-08-31T01:31:53.426Z,1012.12
2018-08-31T01:32:53.426Z,1012.07
2018-08-31T01:33:53.420Z,1012.11
2018-08-31T01:34:53.416Z,1012.14
2018-08-31T01:35:53.412Z,1012.14
2018-08-31T01:36:53.411Z,1012.13
2018-08-31T01:37:53.412Z,1012.16
2018-08-31T01:38:53.404Z,1012.12
2018-08-31T01:39:53.402Z,1012.11
2018-08-31T01:40:53.399Z,1012.10
2018-08-31T01:41:53.397Z,1012.08
2018-08-31T01:42:53.394Z,1012.10
2018-08-31T01:43:53.391Z,1012.09
2018-08-31T01:44:53.388Z,1012.11
2018-08-31T01:45:53.386Z,1012.09
2018-08-31T01:46:53.381Z,1012.10
2018-08-31T01:47:53.377Z,1012.10
2018-08-31T01:48:53.374Z,1012.12
2018-08-31T01:49:53.372Z,1012.09
2018-08-31T01:50:53.369Z,1012.06
2018-08-31T01:51:53.366Z,1012.07
2018-08-31T01:52:53.375Z,1012.07
2018-08-31T01:53:53.360Z,1012.06
2018-08-31T01:54:53.359Z,1012.10
2018-08-31T01:55:53.355Z,1012.15
2018-08-31T01:56:53.350Z,1012.13
2018-08-31T01:57:53.347Z,1012.14
2018-08-31T01:58:53.345Z,1012.11
2018-08-31T01:59:53.345Z,1012.16
2018-08-31T02:00:53.338Z,1012.12
2018-08-31T02:01:53.337Z,1012.12
2018-08-31T02:02:53.330Z,1012.12
2018-08-31T02:03:53.328Z,1012.11
2018-08-31T02:04:53.326Z,1012.11
2018-08-31T02:05:53.322Z,1012.10
2018-08-31T02:06:53.319Z,1012.10
2018-08-31T02:07:53.315Z,1012.11
2018-08-31T02:08:53.312Z,1012.10
2018-08-31T02:09:53.310Z,1012.07
2018-08-31T02:10:53.306Z,1012.07
2018-08-31T02:11:53.302Z,1012.07
2018-08-31T02:12:53.299Z,1012.07
2018-08-31T02:13:53.297Z,1012.09
2018-08-31T02:14:53.293Z,1012.07
2018-08-31T02:15:53.292Z,1012.10
2018-08-31T02:16:53.290Z,1012.09
2018-08-31T02:17:53.284Z,1012.08
2018-08-31T02:18:53.281Z,1012.12
2018-08-31T02:19:53.277Z,1012.09
2018-08-31T02:20:53.273Z,1012.08
2018-08-31T02:21:53.271Z,1012.10
2018-08-31T02:22:53.266Z,1012.13
2018-08-31T02:23:53.265Z,1012.12
2018-08-31T02:24:53.261Z,1012.10
2018-08-31T02:25:53.257Z,1012.11
2018-08-31T02:26:53.254Z,1012.13
2018-08-31T02:27:53.252Z,1012.05
2018-08-31T02:28:53.249Z,1012.09
2018-08-31T02:29:53.245Z,1012.07
2018-08-31T02:30:53.241Z,1012.08
2018-08-31T02:31:53.237Z,1012.08
2018-08-31T02:32:53.235Z,1012.04
2018-08-31T02:33:53.232Z,1012.10
2018-08-31T02:34:53.227Z,1012.11
2018-08-31T02:35:53.224Z,1012.08
2018-08-31T02:36:53.222Z,1012.09
2018-08-31T02:37:53.218Z,1012.06
2018-08-31T02:38:53.214Z,1012.08
2018-08-31T02:39:53.212Z,1012.09
2018-08-31T02:40:53.211Z,1012.07
2018-08-31T02:41:53.204Z,1012.11
2018-08-31T02:42:53.202Z,1012.13
2018-08-31T02:43:53.199Z,1012.12
2018-08-31T02:44:53.200Z,1012.14
2018-08-31T02:45:53.191Z,1012.13
2018-08-31T02:46:53.192Z,1012.12
2018-08-31T02:47:53.186Z,1012.18
2018-08-31T02:48:53.182Z,1012.17
2018-08-31T02:49:53.180Z,1012.15
2018-08-31T02:50:53.176Z,1012.16
2018-08-31T02:51:53.173Z,1012.13
2018-08-31T02:52:53.170Z,1012.13
2018-08-31T02:53:53.166Z,1012.16
2018-08-31T02:54:53.162Z,1012.12
2018-08-31T02:55:53.159Z,1012.11
2018-08-31T02:56:53.157Z,1012.10
2018-08-31T02:57:53.154Z,1012.08
2018-08-31T02:58:53.149Z,1012.09
2018-08-31T02:59:53.146Z,1012.08
2018-08-31T03:00:53.142Z,1012.13
2018-08-31T03:01:53.138Z,1012.09
2018-08-31T03:02:53.135Z,1012.06
2018-08-31T03:03:53.131Z,1012.07
2018-08-31T03:04:53.129Z,1012.07
2018-08-31T03:05:53.126Z,1012.05
2018-08-31T03:06:53.122Z,1012.03
2018-08-31T03:07:53.118Z,1012.06
2018-08-31T03:08:53.118Z,1012.07
2018-08-31T03:09:53.113Z,1012.10
2018-08-31T03:10:53.109Z,1012.05
2018-08-31T03:11:53.105Z,1012.06
2018-08-31T03:12:53.103Z,1012.10
2018-08-31T03:13:53.099Z,1012.07
2018-08-31T03:14:53.095Z,1012.07
2018-08-31T03:15:53.093Z,1012.11
2018-08-31T03:16:53.090Z,1012.08
2018-08-31T03:17:53.085Z,1012.08
2018-08-31T03:18:53.083Z,1012.06
2018-08-31T03:19:53.078Z,1012.15
2018-08-31T03:20:53.075Z,1012.08
2018-08-31T03:21:53.071Z,1012.09
2018-08-31T03:22:53.072Z,1012.10
2018-08-31T03:23:53.065Z,1012.08
2018-08-31T03:24:53.063Z,1012.09
2018-08-31T03:25:53.059Z,1012.10
2018-08-31T03:26:53.055Z,1012.10
2018-08-31T03:27:53.051Z,1012.11
2018-08-31T03:28:53.048Z,1012.09
2018-08-31T03:29:53.044Z,1012.07
2018-08-31T03:30:53.044Z,1012.07
2018-08-31T03:31:53.037Z,1012.05
2018-08-31T03:32:53.033Z,1012.08
2018-08-31T03:33:53.030Z,1012.06
2018-08-31T03:34:53.029Z,1012.09
2018-08-31T03:35:53.024Z,1012.08
2018-08-31T03:36:53.077Z,1012.09
2018-08-31T03:37:53.019Z,1012.09
2018-08-31T03:38:53.014Z,1012.12
2018-08-31T03:39:53.012Z,1012.08
2018-08-31T03:40:53.011Z,1012.09
2018-08-31T03:41:53.005Z,1012.08
2018-08-31T03:42:52.999Z,1012.06
2018-08-31T03:43:52.996Z,1012.08
2018-08-31T03:44:52.994Z,1012.09
2018-08-31T03:45:52.991Z,1012.11
2018-08-31T03:46:52.987Z,1012.10
2018-08-31T03:47:53.044Z,1012.10
2018-08-31T03:48:52.980Z,1012.03
2018-08-31T03:49:52.977Z,1012.07
2018-08-31T03:50:52.976Z,1012.08
2018-08-31T03:51:52.970Z,1012.09
2018-08-31T03:52:52.967Z,1012.06
2018-08-31T03:53:52.963Z,1012.08
2018-08-31T03:54:52.960Z,1012.07
2018-08-31T03:55:52.956Z,1012.11
2018-08-31T03:56:52.953Z,1012.08
2018-08-31T03:57:52.949Z,1012.13
2018-08-31T03:58:52.946Z,1012.07
2018-08-31T03:59:52.944Z,1012.11
2018-08-31T04:00:52.940Z,1012.07
2018-08-31T04:01:52.937Z,1012.09
2018-08-31T04:02:52.933Z,1012.07
2018-08-31T04:03:52.929Z,1012.06
2018-08-31T04:04:52.928Z,1012.07
2018-08-31T04:05:52.921Z,1012.05
2018-08-31T04:06:52.919Z,1012.07
2018-08-31T04:07:52.919Z,1012.10
2018-08-31T04:08:52.913Z,1012.09
2018-08-31T04:09:52.909Z,1012.10
2018-08-31T04:10:52.906Z,1012.07
2018-08-31T04:11:52.905Z,1012.12
2018-08-31T04:12:52.898Z,1012.07
2018-08-31T04:13:52.895Z,1012.08
2018-08-31T04:14:52.903Z,1012.09
2018-08-31T04:15:52.890Z,1012.07
2018-08-31T04:16:52.888Z,1012.07
2018-08-31T04:17:52.882Z,1012.10
2018-08-31T04:18:52.879Z,1012.09
2018-08-31T04:19:52.877Z,1012.09
2018-08-31T04:20:52.873Z,1012.13
2018-08-31T04:21:52.871Z,1012.06
2018-08-31T04:22:52.865Z,1012.07
2018-08-31T04:23:52.860Z,1012.08
2018-08-31T04:24:52.858Z,1012.09
2018-08-31T04:25:52.855Z,1012.04
2018-08-31T04:26:52.852Z,1012.07
2018-08-31T04:27:52.848Z,1012.02
2018-08-31T04:28:52.845Z,1012.06
2018-08-31T04:29:52.840Z,1012.07
2018-08-31T04:30:52.837Z,1012.11
2018-08-31T04:31:52.834Z,1012.08
2018-08-31T04:32:52.830Z,1012.14
2018-08-31T04:33:52.827Z,1012.14
2018-08-31T04:34:52.823Z,1012.12
2018-08-31T04:35:52.820Z,1012.13
2018-08-31T04:36:52.818Z,1012.13
2018-08-31T04:37:52.815Z,1012.13
2018-08-31T04:38:52.808Z,1012.13
2018-08-31T04:39:52.806Z,1012.15
2018-08-31T04:40:52.804Z,1012.13
2018-08-31T04:41:52.800Z,1012.19
2018-08-31T04:42:52.804Z,1012.17
2018-08-31T04:43:52.793Z,1012.16
2018-08-31T04:44:52.790Z,1012.14
2018-08-31T04:45:52.785Z,1012.17
2018-08-31T04:46:52.834Z,1012.16
2018-08-31T04:47:52.780Z,1012.10
2018-08-31T04:48:52.775Z,1012.13
2018-08-31T04:49:52.770Z,1012.09
2018-08-31T04:50:52.770Z,1012.13
2018-08-31T04:51:52.765Z,1012.15
2018-08-31T04:52:52.762Z,1012.12
2018-08-31T04:53:52.757Z,1012.10
2018-08-31T04:54:52.753Z,1012.16
2018-08-31T04:55:52.752Z,1012.12
2018-08-31T04:56:52.747Z,1012.15
2018-08-31T04:57:52.744Z,1012.11
2018-08-31T04:58:52.828Z,1012.15
2018-08-31T04:59:52.736Z,1012.17
2018-08-31T05:00:52.732Z,1012.19
2018-08-31T05:01:52.728Z,1012.19
2018-08-31T05:02:52.725Z,1012.20
2018-08-31T05:03:52.723Z,1012.19
2018-08-31T05:04:52.720Z,1012.19
2018-08-31T05:05:52.715Z,1012.17
2018-08-31T05:06:52.711Z,1012.25
2018-08-31T05:07:52.710Z,1012.22
2018-08-31T05:08:52.707Z,1012.21
2018-08-31T05:09:52.703Z,1012.23
2018-08-31T05:10:52.699Z,1012.18
2018-08-31T05:11:52.695Z,1012.23
2018-08-31T05:12:52.692Z,1012.22
2018-08-31T05:13:52.687Z,1012.24
2018-08-31T05:14:52.684Z,1012.22
2018-08-31T05:15:52.710Z,1012.20
2018-08-31T05:16:52.680Z,1012.24
2018-08-31T05:17:52.674Z,1012.19
2018-08-31T05:18:52.672Z,1012.25
2018-08-31T05:19:52.668Z,1012.22
2018-08-31T05:20:52.667Z,1012.20
2018-08-31T05:21:52.666Z,1012.16
2018-08-31T05:22:52.705Z,1012.23
2018-08-31T05:23:52.655Z,1012.24
2018-08-31T05:24:52.652Z,1012.20
2018-08-31T05:25:52.648Z,1012.17
2018-08-31T05:26:52.644Z,1012.18
2018-08-31T05:27:52.641Z,1012.18
2018-08-31T05:28:52.640Z,1012.18
2018-08-31T05:29:52.635Z,1012.17
2018-08-31T05:30:52.636Z,1012.18
2018-08-31T05:31:52.628Z,1012.16
2018-08-31T05:32:52.626Z,1012.19
2018-08-31T05:33:52.621Z,1012.21
2018-08-31T05:34:52.709Z,1012.18
2018-08-31T05:35:52.615Z,1012.17
2018-08-31T05:36:52.612Z,1012.23
2018-08-31T05:37:52.609Z,1012.26
2018-08-31T05:38:52.607Z,1012.27
2018-08-31T05:39:52.605Z,1012.27
2018-08-31T05:40:52.600Z,1012.29
2018-08-31T05:41:52.596Z,1012.30
2018-08-31T05:42:52.595Z,1012.25
2018-08-31T05:43:52.591Z,1012.30
2018-08-31T05:44:52.588Z,1012.28
2018-08-31T05:45:52.584Z,1012.30
2018-08-31T05:46:52.582Z,1012.27
2018-08-31T05:47:52.580Z,1012.26
2018-08-31T05:48:52.576Z,1012.30
2018-08-31T05:49:52.573Z,1012.28
2018-08-31T05:50:52.570Z,1012.34
2018-08-31T05:51:52.568Z,1012.33
2018-08-31T05:52:52.565Z,1012.34
2018-08-31T05:53:52.561Z,1012.33
2018-08-31T05:54:52.559Z,1012.35
2018-08-31T05:55:52.557Z,1012.35
2018-08-31T05:56:52.554Z,1012.35
2018-08-31T05:57:52.549Z,1012.34
2018-08-31T05:58:52.548Z,1012.35
2018-08-31T05:59:52.545Z,1012.35
2018-08-31T06:00:52.543Z,1012.36
2018-08-31T06:01:52.539Z,1012.33
2018-08-31T06:02:52.535Z,1012.36
2018-08-31T06:03:52.533Z,1012.39
2018-08-31T06:04:52.533Z,1012.40
2018-08-31T06:05:52.528Z,1012.40
2018-08-31T06:06:52.526Z,1012.44
2018-08-31T06:07:52.523Z,1012.42
2018-08-31T06:08:52.522Z,1012.43
2018-08-31T06:09:52.520Z,1012.47
2018-08-31T06:10:52.517Z,1012.48
2018-08-31T06:11:52.559Z,1012.47
2018-08-31T06:12:52.512Z,1012.47
2018-08-31T06:13:52.509Z,1012.50
2018-08-31T06:14:52.507Z,1012.50
2018-08-31T06:15:52.505Z,1012.50
2018-08-31T06:16:52.503Z,1012.56
2018-08-31T06:17:52.499Z,1012.54
2018-08-31T06:18:52.497Z,1012.57
2018-08-31T06:19:52.494Z,1012.59
2018-08-31T06:20:52.518Z,1012.58
2018-08-31T06:21:52.491Z,1012.60
2018-08-31T06:22:52.487Z,1012.65
2018-08-31T06:23:52.486Z,1012.63
2018-08-31T06:24:52.484Z,1012.64
2018-08-31T06:25:52.481Z,1012.66
2018-08-31T06:26:52.479Z,1012.62
2018-08-31T06:27:52.478Z,1012.62
2018-08-31T06:28:52.475Z,1012.61
2018-08-31T06:29:52.473Z,1012.62
2018-08-31T06:30:52.469Z,1012.58
2018-08-31T06:31:52.468Z,1012.65
2018-08-31T06:32:52.467Z,1012.66
2018-08-31T06:33:52.481Z,1012.68
2018-08-31T06:34:52.461Z,1012.67
2018-08-31T06:35:52.460Z,1012.71
2018-08-31T06:36:52.457Z,1012.65
2018-08-31T06:37:52.454Z,1012.70
2018-08-31T06:38:52.479Z,1012.71
2018-08-31T06:39:52.454Z,1012.70
2018-08-31T06:40:52.466Z,1012.71
2018-08-31T06:41:52.446Z,1012.69
2018-08-31T06:42:52.444Z,1012.66
2018-08-31T06:43:52.444Z,1012.66
2018-08-31T06:44:52.443Z,1012.63
2018-08-31T06:45:52.440Z,1012.66
2018-08-31T06:46:52.437Z,1012.69
2018-08-31T06:47:52.436Z,1012.67
2018-08-31T06:48:52.433Z,1012.72
2018-08-31T06:49:52.433Z,1012.71
2018-08-31T06:50:52.429Z,1012.69
2018-08-31T06:51:52.430Z,1012.67
2018-08-31T06:52:52.427Z,1012.69
2018-08-31T06:53:52.427Z,1012.69
2018-08-31T06:54:52.422Z,1012.71
2018-08-31T06:55:52.422Z,1012.75
2018-08-31T06:56:52.420Z,1012.72
2018-08-31T06:57:52.418Z,1012.75
2018-08-31T06:58:52.417Z,1012.75
2018-08-31T06:59:52.417Z,1012.73
2018-08-31T07:00:52.415Z,1012.77
2018-08-31T07:01:52.411Z,1012.74
2018-08-31T07:02:52.410Z,1012.79
2018-08-31T07:03:52.483Z,1012.76
2018-08-31T07:04:52.409Z,1012.79
2018-08-31T07:05:52.411Z,1012.82
2018-08-31T07:06:52.408Z,1012.83
2018-08-31T07:07:52.405Z,1012.88
2018-08-31T07:08:52.403Z,1012.87
2018-08-31T07:09:52.402Z,1012.81
2018-08-31T07:10:52.402Z,1012.85
2018-08-31T07:11:52.402Z,1012.84
2018-08-31T07:12:52.404Z,1012.88
2018-08-31T07:13:52.399Z,1012.91
2018-08-31T07:14:52.397Z,1012.88
2018-08-31T07:15:52.398Z,1012.88
2018-08-31T07:16:52.396Z,1012.86
2018-08-31T07:17:52.397Z,1012.91
2018-08-31T07:18:52.394Z,1012.90
2018-08-31T07:19:52.486Z,1012.93
2018-08-31T07:20:52.395Z,1012.95
2018-08-31T07:21:52.393Z,1012.96
2018-08-31T07:22:52.393Z,1012.98
2018-08-31T07:23:52.391Z,1012.99
2018-08-31T07:24:52.392Z,1012.99
2018-08-31T07:25:52.396Z,1012.98
2018-08-31T07:26:52.404Z,1013.04
2018-08-31T07:27:52.391Z,1013.00
2018-08-31T07:28:52.390Z,1012.95
2018-08-31T07:29:52.389Z,1012.98
2018-08-31T07:30:52.388Z,1013.00
2018-08-31T07:31:52.389Z,1013.02
2018-08-31T07:32:52.391Z,1013.01
2018-08-31T07:33:52.387Z,1013.03
2018-08-31T07:34:52.387Z,1013.07
2018-08-31T07:35:52.394Z,1013.03
2018-08-31T07:36:52.388Z,1013.10
2018-08-31T07:37:52.387Z,1013.08
2018-08-31T07:38:52.387Z,1013.12
2018-08-31T07:39:52.386Z,1013.13
2018-08-31T07:40:52.388Z,1013.12
2018-08-31T07:41:52.385Z,1013.12
2018-08-31T07:42:52.390Z,1013.12
2018-08-31T07:43:52.386Z,1013.12
2018-08-31T07:44:52.387Z,1013.13
2018-08-31T07:45:52.386Z,1013.13
2018-08-31T07:46:52.386Z,1013.10
2018-08-31T07:47:52.440Z,1013.14
2018-08-31T07:48:52.388Z,1013.18
2018-08-31T07:49:52.385Z,1013.15
2018-08-31T07:50:52.386Z,1013.16
2018-08-31T07:51:52.387Z,1013.18
2018-08-31T07:52:52.392Z,1013.18
2018-08-31T07:53:52.451Z,1013.21
2018-08-31T07:54:52.389Z,1013.22
2018-08-31T07:55:52.389Z,1013.24
2018-08-31T07:56:52.390Z,1013.27
2018-08-31T07:57:52.392Z,1013.26
2018-08-31T07:58:52.390Z,1013.25
2018-08-31T07:59:52.392Z,1013.24
2018-08-31T08:00:52.391Z,1013.25
2018-08-31T08:01:52.391Z,1013.28
2018-08-31T08:02:52.393Z,1013.26
2018-08-31T08:03:52.392Z,1013.34
2018-08-31T08:04:52.395Z,1013.32
2018-08-31T08:05:52.393Z,1013.34
2018-08-31T08:06:52.395Z,1013.34
2018-08-31T08:07:52.395Z,1013.36
2018-08-31T08:08:52.397Z,1013.34
2018-08-31T08:09:52.432Z,1013.36
2018-08-31T08:10:52.398Z,1013.34
2018-08-31T08:11:52.398Z,1013.35
2018-08-31T08:12:52.400Z,1013.38
2018-08-31T08:13:52.400Z,1013.33
2018-08-31T08:14:52.436Z,1013.36
2018-08-31T08:15:52.401Z,1013.37
2018-08-31T08:16:52.405Z,1013.40
2018-08-31T08:17:52.402Z,1013.41
2018-08-31T08:18:52.404Z,1013.37
2018-08-31T08:19:52.405Z,1013.36
2018-08-31T08:20:52.407Z,1013.38
2018-08-31T08:21:52.408Z,1013.36
2018-08-31T08:22:52.408Z,1013.39
2018-08-31T08:23:52.408Z,1013.40
2018-08-31T08:24:52.410Z,1013.40
2018-08-31T08:25:52.409Z,1013.40
2018-08-31T08:26:52.411Z,1013.41
2018-08-31T08:27:52.415Z,1013.42
2018-08-31T08:28:52.415Z,1013.46
2018-08-31T08:29:52.416Z,1013.52
2018-08-31T08:30:52.416Z,1013.48
2018-08-31T08:31:52.420Z,1013.49
2018-08-31T08:32:52.419Z,1013.51
2018-08-31T08:33:52.421Z,1013.55
2018-08-31T08:34:52.421Z,1013.57
2018-08-31T08:35:52.472Z,1013.54
2018-08-31T08:36:52.426Z,1013.55
2018-08-31T08:37:52.428Z,1013.58
2018-08-31T08:38:55.051Z,1013.62
2018-08-31T08:39:52.431Z,1013.60
2018-08-31T08:40:52.432Z,1013.64
2018-08-31T08:41:52.494Z,1013.64
2018-08-31T08:42:52.437Z,1013.70
2018-08-31T08:43:52.440Z,1013.69
2018-08-31T08:44:52.441Z,1013.72
2018-08-31T08:45:52.443Z,1013.71
2018-08-31T08:46:52.447Z,1013.67
2018-08-31T08:47:52.450Z,1013.70
2018-08-31T08:48:52.455Z,1013.67
2018-08-31T08:49:52.455Z,1013.69
2018-08-31T08:50:52.459Z,1013.66
2018-08-31T08:51:52.462Z,1013.65
2018-08-31T08:52:52.466Z,1013.71
2018-08-31T08:53:52.469Z,1013.70
2018-08-31T08:54:52.474Z,1013.75
2018-08-31T08:55:52.478Z,1013.77
2018-08-31T08:56:52.481Z,1013.77
2018-08-31T08:57:52.484Z,1013.76
2018-08-31T08:58:52.486Z,1013.73
2018-08-31T08:59:52.492Z,1013.71
2018-08-31T09:00:52.494Z,1013.73
2018-08-31T09:01:52.498Z,1013.71
2018-08-31T09:02:52.502Z,1013.74
2018-08-31T09:03:52.506Z,1013.77
2018-08-31T09:04:52.510Z,1013.76
2018-08-31T09:05:52.518Z,1013.81
2018-08-31T09:06:52.517Z,1013.83
2018-08-31T09:07:52.521Z,1013.82
2018-08-31T09:08:52.525Z,1013.83
2018-08-31T09:09:52.534Z,1013.84
2018-08-31T09:10:52.534Z,1013.83
2018-08-31T09:11:52.589Z,1013.85
2018-08-31T09:12:52.543Z,1013.85
2018-08-31T09:13:52.550Z,1013.85
2018-08-31T09:14:52.552Z,1013.89
2018-08-31T09:15:52.557Z,1013.93
2018-08-31T09:16:52.562Z,1013.94
2018-08-31T09:17:52.568Z,1013.92
2018-08-31T09:18:52.573Z,1013.95
2018-08-31T09:19:52.578Z,1013.98
2018-08-31T09:20:52.584Z,1014.06
2018-08-31T09:21:52.588Z,1014.03
2018-08-31T09:22:52.593Z,1014.06
2018-08-31T09:23:52.602Z,1014.04
2018-08-31T09:24:52.608Z,1014.07
2018-08-31T09:25:52.613Z,1014.08
2018-08-31T09:26:52.621Z,1014.10
2018-08-31T09:27:52.626Z,1014.07
2018-08-31T09:28:52.635Z,1014.07
2018-08-31T09:29:52.638Z,1014.12
2018-08-31T09:30:52.644Z,1013.82
2018-08-31T09:31:52.652Z,1013.79
2018-08-31T09:32:52.660Z,1013.77
2018-08-31T09:33:52.669Z,1013.75
2018-08-31T09:34:52.676Z,1013.70
2018-08-31T09:35:52.680Z,1013.66
2018-08-31T09:36:52.687Z,1013.72
2018-08-31T09:37:52.698Z,1013.75
2018-08-31T09:38:52.701Z,1013.66
2018-08-31T09:39:52.710Z,1013.61
2018-08-31T09:40:52.714Z,1013.57
2018-08-31T09:41:52.720Z,1013.58
2018-08-31T09:42:52.726Z,1013.59
2018-08-31T09:43:52.779Z,1013.57
2018-08-31T09:44:52.739Z,1013.53
2018-08-31T09:45:52.748Z,1013.55
2018-08-31T09:46:52.750Z,1013.48
2018-08-31T09:47:52.757Z,1013.53
2018-08-31T09:48:52.763Z,1013.55
2018-08-31T09:49:52.766Z,1013.51
2018-08-31T09:50:52.772Z,1013.48
2018-08-31T09:51:52.779Z,1013.44
2018-08-31T09:52:52.782Z,1013.45
2018-08-31T09:53:52.789Z,1013.48
2018-08-31T09:54:52.794Z,1013.46
2018-08-31T09:55:52.801Z,1013.45
2018-08-31T09:56:52.802Z,1013.46
2018-08-31T09:57:52.808Z,1013.44
2018-08-31T09:58:52.812Z,1013.46
2018-08-31T09:59:52.816Z,1013.46
2018-08-31T10:00:52.822Z,1013.46
2018-08-31T10:01:52.827Z,1013.47
2018-08-31T10:02:52.829Z,1013.47
2018-08-31T10:03:52.835Z,1013.48
2018-08-31T10:04:52.839Z,1013.49
2018-08-31T10:05:52.842Z,1013.48
2018-08-31T10:06:52.846Z,1013.51
2018-08-31T10:07:52.851Z,1013.47
2018-08-31T10:08:52.858Z,1013.47
2018-08-31T10:09:52.860Z,1013.48
2018-08-31T10:10:52.907Z,1013.51
2018-08-31T10:11:52.867Z,1013.49
2018-08-31T10:12:52.874Z,1013.53
2018-08-31T10:13:52.875Z,1013.49
2018-08-31T10:14:52.879Z,1013.45
2018-08-31T10:15:52.886Z,1013.47
2018-08-31T10:16:52.889Z,1013.49
2018-08-31T10:17:52.892Z,1013.47
2018-08-31T10:18:53.000Z,1013.51
2018-08-31T10:19:52.900Z,1013.53
2018-08-31T10:20:52.909Z,1013.57
2018-08-31T10:21:52.908Z,1013.52
2018-08-31T10:22:52.913Z,1013.56
2018-08-31T10:23:52.922Z,1013.52
2018-08-31T10:24:52.923Z,1013.53
2018-08-31T10:25:52.926Z,1013.55
2018-08-31T10:26:52.930Z,1013.53
2018-08-31T10:27:52.936Z,1013.51
2018-08-31T10:28:52.945Z,1013.54
2018-08-31T10:29:52.943Z,1013.55
2018-08-31T10:30:52.949Z,1013.55
2018-08-31T10:31:52.956Z,1013.58
2018-08-31T10:32:52.959Z,1013.58
2018-08-31T10:33:52.963Z,1013.57
2018-08-31T10:34:52.967Z,1013.52
2018-08-31T10:35:52.973Z,1013.53
2018-08-31T10:36:52.978Z,1013.55
2018-08-31T10:37:52.985Z,1013.58
2018-08-31T10:38:52.985Z,1013.59
2018-08-31T10:39:52.991Z,1013.58
2018-08-31T10:40:52.997Z,1013.54
2018-08-31T10:41:53.000Z,1013.55
2018-08-31T10:42:53.005Z,1013.57
2018-08-31T10:43:53.012Z,1013.53
2018-08-31T10:44:53.015Z,1013.47
2018-08-31T10:45:53.020Z,1013.51
2018-08-31T10:46:53.039Z,1013.49
2018-08-31T10:47:53.030Z,1013.54
2018-08-31T10:48:53.036Z,1013.50
2018-08-31T10:49:53.039Z,1013.53
2018-08-31T10:50:53.046Z,1013.52
2018-08-31T10:51:53.051Z,1013.45
2018-08-31T10:52:53.060Z,1013.46
2018-08-31T10:53:53.061Z,1013.48
2018-08-31T10:54:53.065Z,1013.44
2018-08-31T10:55:53.071Z,1013.43
2018-08-31T10:56:53.077Z,1013.45
2018-08-31T10:57:53.081Z,1013.45
2018-08-31T10:58:53.086Z,1013.46
2018-08-31T10:59:53.093Z,1013.41
2018-08-31T11:00:53.097Z,1013.42
2018-08-31T11:01:53.102Z,1013.43
2018-08-31T11:02:53.107Z,1013.38
2018-08-31T11:03:53.112Z,1013.41
2018-08-31T11:04:53.117Z,1013.37
2018-08-31T11:05:53.128Z,1013.38
2018-08-31T11:06:53.129Z,1013.36
2018-08-31T11:07:53.134Z,1013.35
2018-08-31T11:08:53.139Z,1013.27
2018-08-31T11:09:53.144Z,1013.28
2018-08-31T11:10:53.148Z,1013.30
2018-08-31T11:11:53.155Z,1013.30
2018-08-31T11:12:53.194Z,1013.27
2018-08-31T11:13:53.166Z,1013.32
2018-08-31T11:14:53.169Z,1013.32
2018-08-31T11:15:53.175Z,1013.30
2018-08-31T11:16:53.180Z,1013.31
2018-08-31T11:17:53.185Z,1013.29
2018-08-31T11:18:53.242Z,1013.35
2018-08-31T11:19:53.197Z,1013.35
2018-08-31T11:20:53.201Z,1013.28
2018-08-31T11:21:53.207Z,1013.29
2018-08-31T11:22:53.212Z,1013.28
2018-08-31T11:23:53.216Z,1013.24
2018-08-31T11:24:53.222Z,1013.22
2018-08-31T11:25:53.230Z,1013.30
2018-08-31T11:26:53.231Z,1013.26
2018-08-31T11:27:53.246Z,1013.22
2018-08-31T11:28:53.242Z,1013.24
2018-08-31T11:29:53.247Z,1013.21
2018-08-31T11:30:53.251Z,1013.22
2018-08-31T11:31:53.256Z,1013.27
2018-08-31T11:32:53.262Z,1013.26
2018-08-31T11:33:53.265Z,1013.23
2018-08-31T11:34:53.273Z,1013.24
2018-08-31T11:35:53.275Z,1013.22
2018-08-31T11:36:53.280Z,1013.17
2018-08-31T11:37:53.286Z,1013.18
2018-08-31T11:38:53.289Z,1013.16
2018-08-31T11:39:53.293Z,1013.18
2018-08-31T11:40:53.298Z,1013.17
2018-08-31T11:41:53.303Z,1013.20
2018-08-31T11:42:53.307Z,1013.19
2018-08-31T11:43:53.313Z,1013.13
2018-08-31T11:44:53.318Z,1013.24
2018-08-31T11:45:53.321Z,1013.19
2018-08-31T11:46:53.326Z,1013.20
2018-08-31T11:47:53.332Z,1013.20
2018-08-31T11:48:53.335Z,1013.20
2018-08-31T11:49:53.342Z,1013.16
2018-08-31T11:50:53.343Z,1013.13
2018-08-31T11:51:53.347Z,1013.11
2018-08-31T11:52:53.352Z,1013.10
2018-08-31T11:53:53.356Z,1013.11
2018-08-31T11:54:53.360Z,1013.09
2018-08-31T11:55:53.365Z,1013.08
2018-08-31T11:56:53.371Z,1013.12
2018-08-31T11:57:53.374Z,1013.08
2018-08-31T11:58:53.382Z,1013.11
2018-08-31T11:59:53.383Z,1013.10
2018-08-31T12:00:53.390Z,1013.08
2018-08-31T12:01:53.447Z,1013.06
2018-08-31T12:02:53.396Z,1013.09
2018-08-31T12:03:53.400Z,1013.08
2018-08-31T12:04:53.406Z,1013.08
2018-08-31T12:05:53.410Z,1013.02